Portada
METAR-TAF:

METAR-TAF

Aeroports :

Shenzhen, Xina

latitud: 22-33N, longitud: 114-06E, altitud: 18 m

Observació

L'informe es va fer fa 24 minuts, a les 00:00 UTC
Vent 4 kt del Nord/Nord-Est
Temperatura 16°C
Humitat 59%
Pressió 1019 hPa
Visibilitat: 8000 m

METAR: ZGSZ 110000Z 02002MPS 8000 NSC 16/08 Q1019 NOSIG

Hora: 08:24 (00:24 UTC)

Pronòstic

L'informe es va fer fa 5 hores i 17 minuts, a les 19:07 UTC
Pronòstic vàlid del 11 a les 00 UTC al 11 a les 24 UTC
Vent 8 kt del Oest
Visibilitat: 6000 m
Núvols disperses a una alçada de 4000 ft
Evolucionant progressivament
l' 11 a les 10 UTC al 11 a les 11 UTC
Vent 8 kt del Est/Sud-Est

TAF: ZGSZ 101907Z 1100/1124 27004MPS 6000 SCT040 TX23/1106Z TN15/1122Z BECMG 1110/1111 11004MPS

Observacions i pronòstics meteorològics de més de 4000 aeroports (METAR i TAF).

Les estacions disponibles són els punts grocs i vermells al mapa.

Posi el ratolí al punt desitjat per veure el nom de l'estació.

Feu clic per veure les observacions i els pronòstics meteorològics.

Per canviar el mapa: feu clic els botons verds amb una creu de color negre per apropar; al botó verd amb un guió per allunyar la imatge; o en les fletxes verdes per a mapes adjacents.


METAR-TAF: